Time;durP1;ratioP1;P1;durP2;ratioP2;P2;SDS_P1;SDS_P2;PMS_P1;PMS_P2;Temp;Humidity;BMP_temperature;BMP_pressure;BME280_temperature;BME280_humidity;BME280_pressure;Samples;Min_cycle;Max_cycle;Signal;HPM_P1;HPM_P2
2022/04/09 00:00:00;;;;;;;16.53;2.90;;;;;;;-150.27;100.00;61272.81;5232197;28;20034;-77
2022/04/09 00:02:31;;;;;;;13.57;3.87;;;;;;;-150.27;100.00;61272.81;5233058;28;20040;-78
2022/04/09 00:05:02;;;;;;;17.47;3.73;;;;;;;-150.27;100.00;61272.81;5232021;28;20033;-77
2022/04/09 00:07:34;;;;;;;18.20;3.40;;;;;;;-150.27;100.00;61272.81;5233824;28;20029;-77
2022/04/09 00:10:07;;;;;;;16.83;3.43;;;;;;;-150.27;100.00;61272.81;5231951;28;20032;-79
2022/04/09 00:12:39;;;;;;;14.93;3.57;;;;;;;-150.27;100.00;61272.81;5215719;28;20647;-77
2022/04/09 00:15:12;;;;;;;14.37;4.17;;;;;;;-150.27;100.00;61272.81;5232578;28;20029;-77
2022/04/09 00:17:44;;;;;;;18.67;4.07;;;;;;;-150.27;100.00;61272.81;5226957;28;20026;-78
2022/04/09 00:20:18;;;;;;;11.73;2.87;;;;;;;-150.27;100.00;61272.81;5229146;28;20037;-77
2022/04/09 00:22:49;;;;;;;14.53;4.67;;;;;;;-150.27;100.00;61272.81;5210067;28;20057;-76
2022/04/09 00:25:23;;;;;;;17.10;3.10;;;;;;;-150.27;100.00;61272.81;5216075;28;20449;-78
2022/04/09 00:27:55;;;;;;;13.75;3.28;;;;;;;-150.27;100.00;61272.81;5219696;28;20115;-77
2022/04/09 00:30:26;;;;;;;14.30;4.00;;;;;;;-150.27;100.00;61272.81;5228047;28;20037;-78
2022/04/09 00:32:57;;;;;;;20.30;4.93;;;;;;;-150.27;100.00;61272.81;5238290;28;20029;-78
2022/04/09 00:35:28;;;;;;;16.83;4.27;;;;;;;-150.27;100.00;61272.81;5232515;28;20048;-78
2022/04/09 00:38:00;;;;;;;15.90;4.20;;;;;;;-150.27;100.00;61272.81;5215118;28;20046;-78
2022/04/09 00:40:31;;;;;;;20.13;5.73;;;;;;;-150.27;100.00;61272.81;5231327;28;20056;-77
2022/04/09 00:43:02;;;;;;;16.93;4.10;;;;;;;-150.27;100.00;61272.81;5231991;28;20034;-77
2022/04/09 00:45:34;;;;;;;12.33;3.50;;;;;;;-150.27;100.00;61272.81;5238947;28;20036;-78
2022/04/09 00:48:06;;;;;;;23.97;4.87;;;;;;;-150.27;100.00;61272.81;5244881;28;20373;-77
2022/04/09 00:50:38;;;;;;;19.47;5.23;;;;;;;-150.27;100.00;61272.81;5247057;28;20028;-77
2022/04/09 00:53:10;;;;;;;20.43;4.60;;;;;;;-150.27;100.00;61272.81;5242551;28;20059;-78
2022/04/09 00:58:33;;;;;;;22.87;4.87;;;;;;;-150.27;100.00;61272.81;5248237;28;20029;-77
2022/04/09 01:01:05;;;;;;;23.87;4.60;;;;;;;-150.27;100.00;61272.81;5252787;28;20025;-78
2022/04/09 01:03:38;;;;;;;16.03;4.03;;;;;;;-150.27;100.00;61272.81;5247536;28;20109;-77
2022/04/09 01:06:11;;;;;;;17.10;4.47;;;;;;;-150.27;100.00;61272.81;5251666;28;20026;-77
2022/04/09 01:08:43;;;;;;;18.83;5.07;;;;;;;-150.27;100.00;61272.81;5251088;28;20025;-78
2022/04/09 01:11:14;;;;;;;16.53;3.80;;;;;;;-150.27;100.00;61272.81;5248780;28;20024;-77
2022/04/09 01:13:46;;;;;;;24.27;4.43;;;;;;;-150.27;100.00;61272.81;5252650;28;20553;-77
2022/04/09 01:16:17;;;;;;;16.70;5.33;;;;;;;-150.27;100.00;61272.81;5245718;28;20029;-78
2022/04/09 01:18:48;;;;;;;18.40;3.80;;;;;;;-150.27;100.00;61272.81;5240942;28;20021;-78
2022/04/09 01:21:20;;;;;;;16.50;4.67;;;;;;;-150.27;100.00;61272.81;5235838;28;20036;-77
2022/04/09 01:23:52;;;;;;;13.17;4.13;;;;;;;-150.27;100.00;61272.81;5231992;28;20104;-77
2022/04/09 01:26:23;;;;;;;16.83;4.23;;;;;;;-150.27;100.00;61272.81;5230843;28;20033;-78
2022/04/09 01:28:55;;;;;;;17.23;3.60;;;;;;;-150.27;100.00;61272.81;5213085;28;20063;-77
2022/04/09 01:31:26;;;;;;;19.40;5.30;;;;;;;-150.27;100.00;61272.81;5234591;28;20083;-78
2022/04/09 01:33:57;;;;;;;25.10;4.27;;;;;;;-150.27;100.00;61272.81;5234137;28;20029;-77
2022/04/09 01:36:29;;;;;;;19.63;4.77;;;;;;;-150.27;100.00;61272.81;5216001;28;20033;-78
2022/04/09 01:39:00;;;;;;;18.37;3.33;;;;;;;-150.27;100.00;61272.81;5249794;28;20042;-78
2022/04/09 01:41:31;;;;;;;18.43;4.40;;;;;;;-150.27;100.00;61272.81;5239806;28;20041;-77
2022/04/09 01:44:03;;;;;;;20.63;3.97;;;;;;;-150.27;100.00;61272.81;5246207;28;20033;-78
2022/04/09 01:46:34;;;;;;;21.33;3.97;;;;;;;-150.27;100.00;61272.81;5234487;28;20535;-78
2022/04/09 01:49:07;;;;;;;18.63;3.90;;;;;;;-150.27;100.00;61272.81;5251835;28;20247;-78
2022/04/09 01:51:38;;;;;;;18.37;3.57;;;;;;;-150.27;100.00;61272.81;5241922;28;20025;-78
2022/04/09 01:54:09;;;;;;;15.10;3.47;;;;;;;-150.27;100.00;61272.81;5230305;28;20076;-77
2022/04/09 01:56:41;;;;;;;19.97;3.90;;;;;;;-150.27;100.00;61272.81;5246088;28;20167;-77
2022/04/09 01:59:12;;;;;;;16.10;3.43;;;;;;;-150.27;100.00;61272.81;5245966;28;20127;-76
2022/04/09 02:01:43;;;;;;;18.07;3.30;;;;;;;-150.27;100.00;61272.81;5249782;28;20037;-78
2022/04/09 02:04:17;;;;;;;17.03;3.50;;;;;;;-150.27;100.00;61272.81;5245322;28;20044;-77
2022/04/09 02:06:50;;;;;;;14.32;3.38;;;;;;;-150.27;100.00;61272.81;5245312;28;20017;-78
2022/04/09 02:09:21;;;;;;;15.07;4.73;;;;;;;-150.27;100.00;61272.81;5251280;28;20028;-77
2022/04/09 02:11:53;;;;;;;21.10;4.57;;;;;;;-150.27;100.00;61272.81;5240286;28;20534;-78
2022/04/09 02:14:24;;;;;;;15.37;2.87;;;;;;;-150.27;100.00;61272.81;5250900;28;20041;-77
2022/04/09 02:16:55;;;;;;;20.00;4.03;;;;;;;-150.27;100.00;61272.81;5241811;28;20116;-77
2022/04/09 02:19:26;;;;;;;25.40;6.53;;;;;;;-150.27;100.00;61272.81;5250245;28;20044;-77
2022/04/09 02:21:58;;;;;;;25.63;3.30;;;;;;;-150.27;100.00;61272.81;5228183;28;20037;-78
2022/04/09 02:24:29;;;;;;;18.27;3.37;;;;;;;-150.27;100.00;61272.81;5211970;28;20419;-77
2022/04/09 02:27:00;;;;;;;19.43;3.80;;;;;;;-150.27;100.00;61272.81;5230365;28;20030;-78
2022/04/09 02:29:32;;;;;;;19.27;3.40;;;;;;;-150.27;100.00;61272.81;5212582;28;20033;-77
2022/04/09 02:32:05;;;;;;;15.77;3.20;;;;;;;-150.27;100.00;61272.81;5212154;28;20064;-77
2022/04/09 02:34:36;;;;;;;12.93;3.70;;;;;;;-150.27;100.00;61272.81;5231154;28;20052;-78
2022/04/09 02:37:07;;;;;;;14.10;3.07;;;;;;;-150.27;100.00;61272.81;5229639;28;20084;-77
2022/04/09 02:39:39;;;;;;;20.33;5.10;;;;;;;-150.27;100.00;61272.81;5211878;28;20072;-78
2022/04/09 02:42:12;;;;;;;24.03;3.93;;;;;;;-150.27;100.00;61272.81;5229406;28;20045;-77
2022/04/09 02:44:43;;;;;;;18.43;3.40;;;;;;;-150.27;100.00;61272.81;5230368;28;20112;-78
2022/04/09 02:47:15;;;;;;;16.40;3.50;;;;;;;-150.27;100.00;61272.81;5230567;28;20104;-77
2022/04/09 02:49:46;;;;;;;12.67;3.13;;;;;;;-150.27;100.00;61272.81;5230530;28;20446;-77
2022/04/09 02:52:17;;;;;;;16.87;2.97;;;;;;;-150.27;100.00;61272.81;5195596;28;20543;-78
2022/04/09 02:54:48;;;;;;;15.53;2.80;;;;;;;-150.27;100.00;61272.81;5229311;28;20021;-77
2022/04/09 02:57:20;;;;;;;20.40;4.57;;;;;;;-150.27;100.00;61272.81;5230314;28;20107;-77
2022/04/09 02:59:51;;;;;;;20.27;4.27;;;;;;;-150.27;100.00;61272.81;5230172;28;20551;-77
2022/04/09 03:02:22;;;;;;;18.70;3.27;;;;;;;-150.27;100.00;61272.81;5230366;28;20029;-77
2022/04/09 03:04:54;;;;;;;13.90;2.60;;;;;;;-150.27;100.00;61272.81;5230402;28;20053;-77
2022/04/09 03:07:26;;;;;;;32.63;4.80;;;;;;;-150.27;100.00;61272.81;5231180;28;20021;-77
2022/04/09 03:09:57;;;;;;;12.30;3.73;;;;;;;-150.27;100.00;61272.81;5233741;28;20018;-71
2022/04/09 03:12:28;;;;;;;15.57;3.23;;;;;;;-150.27;100.00;61272.81;5236222;28;20041;-77
2022/04/09 03:15:00;;;;;;;12.43;3.43;;;;;;;-150.27;100.00;61272.81;5233785;28;20057;-78
2022/04/09 03:17:31;;;;;;;18.00;2.90;;;;;;;-150.27;100.00;61272.81;5234335;28;20498;-78
2022/04/09 03:20:03;;;;;;;15.93;3.83;;;;;;;-150.27;100.00;61272.81;5234006;28;20040;-77
2022/04/09 03:22:35;;;;;;;15.90;4.00;;;;;;;-150.27;100.00;61272.81;5234241;28;20175;-78
2022/04/09 03:25:06;;;;;;;13.93;3.50;;;;;;;-150.27;100.00;61272.81;5232596;28;20165;-78
2022/04/09 03:27:38;;;;;;;18.13;4.07;;;;;;;-150.27;100.00;61272.81;5233890;28;20770;-78
2022/04/09 03:30:10;;;;;;;15.50;2.70;;;;;;;-150.27;100.00;61272.81;5216026;28;20021;-77
2022/04/09 03:32:42;;;;;;;13.03;3.10;;;;;;;-150.27;100.00;61272.81;5216743;28;20533;-77
2022/04/09 03:35:14;;;;;;;16.60;3.07;;;;;;;-150.27;100.00;61272.81;5233382;28;20037;-78
2022/04/09 03:37:45;;;;;;;12.17;3.53;;;;;;;-150.27;100.00;61272.81;5234034;28;20025;-78
2022/04/09 03:40:16;;;;;;;15.93;2.97;;;;;;;-150.27;100.00;61272.81;5231256;28;20033;-77
2022/04/09 03:42:48;;;;;;;18.33;4.53;;;;;;;-150.27;100.00;61272.81;5233250;28;20566;-78
2022/04/09 03:45:19;;;;;;;15.67;3.13;;;;;;;-150.27;100.00;61272.81;5245561;28;20461;-78
2022/04/09 03:47:51;;;;;;;15.97;3.27;;;;;;;-150.27;100.00;61272.81;5250898;28;20021;-78
2022/04/09 03:50:22;;;;;;;17.33;3.90;;;;;;;-150.27;100.00;61272.81;5246071;28;20518;-77
2022/04/09 03:52:53;;;;;;;15.20;3.50;;;;;;;-150.27;100.00;61272.81;5242242;28;20025;-77
2022/04/09 03:55:25;;;;;;;11.07;3.10;;;;;;;-150.27;100.00;61272.81;5252220;28;20025;-78
2022/04/09 03:57:57;;;;;;;19.07;4.53;;;;;;;-150.27;100.00;61272.81;5247769;28;20127;-77
2022/04/09 04:00:28;;;;;;;18.23;4.43;;;;;;;-150.27;100.00;61272.81;5249279;28;20017;-78
2022/04/09 04:02:59;;;;;;;15.20;3.40;;;;;;;-150.27;100.00;61272.81;5251775;28;20025;-78
2022/04/09 04:05:32;;;;;;;16.63;3.60;;;;;;;-150.27;100.00;61272.81;5231690;28;20024;-78
2022/04/09 04:08:07;;;;;;;18.80;2.60;;;;;;;-150.27;100.00;61272.81;5244785;28;20052;-78
2022/04/09 04:10:38;;;;;;;13.40;3.57;;;;;;;-150.27;100.00;61272.81;5251766;28;20010;-77
2022/04/09 04:13:11;;;;;;;15.27;3.83;;;;;;;-150.27;100.00;61272.81;5245286;28;20060;-78
2022/04/09 04:15:42;;;;;;;16.80;4.97;;;;;;;-150.27;100.00;61272.81;5254027;28;20021;-78
2022/04/09 04:18:14;;;;;;;15.43;3.40;;;;;;;-150.27;100.00;61272.81;5253597;28;20525;-77
2022/04/09 04:20:45;;;;;;;18.80;3.73;;;;;;;-150.27;100.00;61272.81;5247709;28;20049;-78
2022/04/09 04:23:16;;;;;;;14.07;3.00;;;;;;;-150.27;100.00;61272.81;5232236;28;20049;-77
2022/04/09 04:25:47;;;;;;;12.27;2.70;;;;;;;-150.27;100.00;61272.81;5232396;28;20029;-77
2022/04/09 04:28:19;;;;;;;18.40;4.20;;;;;;;-150.27;100.00;61272.81;5232394;28;20029;-77
2022/04/09 04:30:50;;;;;;;14.53;2.60;;;;;;;-150.27;100.00;61272.81;5234389;28;20029;-77
2022/04/09 04:33:21;;;;;;;15.47;3.00;;;;;;;-150.27;100.00;61272.81;5250267;28;20032;-77
2022/04/09 04:35:53;;;;;;;13.57;3.03;;;;;;;-150.27;100.00;61272.81;5253235;28;20053;-77
2022/04/09 04:38:24;;;;;;;18.30;3.37;;;;;;;-150.27;100.00;61272.81;5220375;28;20050;-78
2022/04/09 04:40:56;;;;;;;15.73;3.93;;;;;;;-150.27;100.00;61272.81;5239625;28;20033;-77
2022/04/09 04:43:27;;;;;;;15.30;3.40;;;;;;;-150.27;100.00;61272.81;5253430;28;20040;-75
2022/04/09 04:45:58;;;;;;;16.83;4.63;;;;;;;-150.27;100.00;61272.81;5236940;28;20036;-77
2022/04/09 04:48:31;;;;;;;16.20;4.67;;;;;;;-150.27;100.00;61272.81;5256550;28;20156;-77
2022/04/09 04:51:02;;;;;;;12.17;3.53;;;;;;;-150.27;100.00;61272.81;5248380;28;20393;-77
2022/04/09 04:53:33;;;;;;;20.10;4.33;;;;;;;-150.27;100.00;61272.81;5233016;28;20029;-80
2022/04/09 04:56:05;;;;;;;14.73;3.73;;;;;;;-150.27;100.00;61272.81;5247715;28;20125;-75
2022/04/09 04:58:36;;;;;;;16.60;3.10;;;;;;;-150.27;100.00;61272.81;5248711;28;20047;-77
2022/04/09 05:01:07;;;;;;;13.00;3.87;;;;;;;-150.27;100.00;61272.81;5250166;28;20108;-83
2022/04/09 05:03:39;;;;;;;15.37;2.70;;;;;;;-150.27;100.00;61272.81;5252332;28;20058;-81
2022/04/09 05:06:11;;;;;;;17.33;3.83;;;;;;;-150.27;100.00;61272.81;5240997;28;20399;-81
2022/04/09 05:08:42;;;;;;;20.57;3.73;;;;;;;-150.27;100.00;61272.81;5233594;28;20029;-81
2022/04/09 05:11:13;;;;;;;15.03;3.37;;;;;;;-150.27;100.00;61272.81;5246159;28;20176;-80
2022/04/09 05:13:44;;;;;;;17.47;4.47;;;;;;;-150.27;100.00;61272.81;5243138;28;20045;-82
2022/04/09 05:16:16;;;;;;;15.67;3.13;;;;;;;-150.27;100.00;61272.81;5234285;28;20041;-82
2022/04/09 05:18:47;;;;;;;12.37;3.43;;;;;;;-150.27;100.00;61272.81;5231581;28;20045;-86
2022/04/09 05:21:18;;;;;;;15.80;3.43;;;;;;;-150.27;100.00;61272.81;5211483;28;20030;-85
2022/04/09 05:23:49;;;;;;;16.23;3.07;;;;;;;-150.27;100.00;61272.81;5247220;28;20103;-75
2022/04/09 05:26:21;;;;;;;28.90;5.23;;;;;;;-150.27;100.00;61272.81;5234049;28;20025;-79
2022/04/09 05:28:55;;;;;;;16.80;4.47;;;;;;;-150.27;100.00;61272.81;5240986;28;20029;-78
2022/04/09 05:31:29;;;;;;;17.52;3.40;;;;;;;-150.27;100.00;61272.81;5249667;28;20041;-78
2022/04/09 05:34:00;;;;;;;15.75;3.33;;;;;;;-150.27;100.00;61272.81;5244779;28;20024;-79
2022/04/09 05:36:32;;;;;;;18.10;3.37;;;;;;;-150.27;100.00;61272.81;5242920;28;20056;-78
2022/04/09 05:39:03;;;;;;;21.40;4.47;;;;;;;-150.27;100.00;61272.81;5250042;28;20376;-78
2022/04/09 05:41:34;;;;;;;20.27;4.33;;;;;;;-150.27;100.00;61272.81;5247629;28;20577;-78
2022/04/09 05:44:05;;;;;;;15.20;2.73;;;;;;;-150.27;100.00;61272.81;5242374;28;20033;-79
2022/04/09 05:46:37;;;;;;;19.40;3.97;;;;;;;-150.27;100.00;61272.81;5228768;28;20487;-78
2022/04/09 05:49:08;;;;;;;20.53;3.80;;;;;;;-150.27;100.00;61272.81;5250099;28;20032;-79
2022/04/09 05:51:39;;;;;;;15.73;3.13;;;;;;;-150.27;100.00;61272.81;5243418;28;20049;-78
2022/04/09 05:54:10;;;;;;;13.70;3.07;;;;;;;-150.27;100.00;61272.81;5236600;28;20063;-78
2022/04/09 05:56:42;;;;;;;14.10;3.50;;;;;;;-150.27;100.00;61272.81;5252504;28;20025;-78
2022/04/09 05:59:13;;;;;;;13.87;3.03;;;;;;;-150.27;100.00;61272.81;5241107;28;20543;-76
2022/04/09 06:01:45;;;;;;;14.57;4.50;;;;;;;-150.27;100.00;61272.81;5214277;28;20040;-80
2022/04/09 06:04:19;;;;;;;16.47;3.83;;;;;;;-150.27;100.00;61272.81;5226019;28;20048;-80
2022/04/09 06:06:50;;;;;;;16.92;4.18;;;;;;;-150.27;100.00;61272.81;5228390;28;20492;-80
2022/04/09 06:09:22;;;;;;;11.23;3.23;;;;;;;-150.27;100.00;61272.81;5230811;28;20124;-80
2022/04/09 06:11:53;;;;;;;19.57;3.57;;;;;;;-150.27;100.00;61272.81;5231452;28;20656;-81
2022/04/09 06:14:24;;;;;;;13.23;3.03;;;;;;;-150.27;100.00;61272.81;5240683;28;20049;-79
2022/04/09 06:16:56;;;;;;;14.77;3.43;;;;;;;-150.27;100.00;61272.81;5214776;28;20049;-80
2022/04/09 06:19:29;;;;;;;16.63;3.57;;;;;;;-150.27;100.00;61272.81;5230930;28;20056;-71
2022/04/09 06:22:01;;;;;;;14.77;3.53;;;;;;;-150.27;100.00;61272.81;5230781;28;20473;-80
2022/04/09 06:24:32;;;;;;;19.30;4.30;;;;;;;-150.27;100.00;61272.81;5230230;28;20040;-79
2022/04/09 06:27:04;;;;;;;18.47;4.70;;;;;;;-150.27;100.00;61272.81;5232106;28;20083;-78
2022/04/09 06:29:35;;;;;;;12.27;4.43;;;;;;;-150.27;100.00;61272.81;5239632;28;20082;-78
2022/04/09 06:32:06;;;;;;;18.53;3.87;;;;;;;-150.27;100.00;61272.81;5233331;28;20045;-78
2022/04/09 06:34:38;;;;;;;22.27;3.60;;;;;;;-150.27;100.00;61272.81;5240003;28;20043;-84
2022/04/09 06:37:09;;;;;;;18.47;4.00;;;;;;;-150.27;100.00;61272.81;5233836;28;20033;-83
2022/04/09 06:39:40;;;;;;;14.80;4.43;;;;;;;-150.27;100.00;61272.81;5231586;28;20033;-83
2022/04/09 06:42:12;;;;;;;15.40;3.17;;;;;;;-150.27;100.00;61272.81;5244304;28;20029;-83
2022/04/09 06:44:43;;;;;;;15.23;3.67;;;;;;;-150.27;100.00;61272.81;5240169;28;20110;-84
2022/04/09 06:47:14;;;;;;;16.17;4.07;;;;;;;-150.27;100.00;61272.81;5245945;28;20043;-84
2022/04/09 06:49:45;;;;;;;13.10;3.70;;;;;;;-150.27;100.00;61272.81;5240981;28;20033;-84
2022/04/09 06:52:16;;;;;;;19.57;3.63;;;;;;;-150.27;100.00;61272.81;5234692;28;20353;-83
2022/04/09 06:54:48;;;;;;;18.57;5.07;;;;;;;-150.27;100.00;61272.81;5248973;28;20021;-83
2022/04/09 06:57:19;;;;;;;16.13;4.13;;;;;;;-150.27;100.00;61272.81;5245204;28;20037;-84
2022/04/09 06:59:51;;;;;;;20.17;4.37;;;;;;;-150.27;100.00;61272.81;5236134;28;20033;-84
2022/04/09 07:02:22;;;;;;;12.90;3.13;;;;;;;-150.27;100.00;61272.81;5221525;28;20392;-84
2022/04/09 07:04:53;;;;;;;15.67;3.30;;;;;;;-150.27;100.00;61272.81;5249676;28;20437;-84
2022/04/09 07:07:27;;;;;;;14.13;3.10;;;;;;;-150.27;100.00;61272.81;5241851;28;20622;-84
2022/04/09 07:10:09;;;;;;;14.17;3.50;;;;;;;-150.27;100.00;61272.81;5227574;28;20044;-82
2022/04/09 07:12:41;;;;;;;16.53;3.83;;;;;;;-150.27;100.00;61272.81;5224539;28;20050;-81
2022/04/09 07:15:12;;;;;;;17.63;4.03;;;;;;;-150.27;100.00;61272.81;5241603;28;20443;-82
2022/04/09 07:17:43;;;;;;;14.10;3.17;;;;;;;-150.27;100.00;61272.81;5240327;28;20242;-82
2022/04/09 07:20:15;;;;;;;23.40;4.87;;;;;;;-150.27;100.00;61272.81;5239428;28;20429;-82
2022/04/09 07:22:46;;;;;;;17.67;3.60;;;;;;;-150.27;100.00;61272.81;5230623;28;20029;-81
2022/04/09 07:25:17;;;;;;;19.50;3.03;;;;;;;-150.27;100.00;61272.81;5229540;28;20037;-82
2022/04/09 07:27:48;;;;;;;16.63;3.43;;;;;;;-150.27;100.00;61272.81;5230260;28;20017;-81
2022/04/09 07:30:21;;;;;;;19.23;3.37;;;;;;;-150.27;100.00;61272.81;5230270;28;20017;-83
2022/04/09 07:32:56;;;;;;;11.70;3.97;;;;;;;-150.27;100.00;61272.81;5238318;28;20385;-83
2022/04/09 07:35:28;;;;;;;14.57;3.60;;;;;;;-150.27;100.00;61272.81;5250299;28;20044;-71
2022/04/09 07:38:00;;;;;;;18.10;3.37;;;;;;;-150.27;100.00;61272.81;5250282;28;20402;-84
2022/04/09 07:40:31;;;;;;;18.37;3.80;;;;;;;-150.27;100.00;61272.81;5240044;28;20029;-81
2022/04/09 07:43:03;;;;;;;11.63;3.23;;;;;;;-150.27;100.00;61272.81;5238318;28;20025;-82
2022/04/09 07:45:34;;;;;;;18.70;3.83;;;;;;;-150.27;100.00;61272.81;5241587;28;20092;-81
2022/04/09 07:48:06;;;;;;;16.17;4.27;;;;;;;-150.27;100.00;61272.81;5237229;28;20408;-81
2022/04/09 07:50:38;;;;;;;11.60;2.83;;;;;;;-150.27;100.00;61272.81;5239810;28;20033;-82
2022/04/09 07:53:09;;;;;;;14.17;4.77;;;;;;;-150.27;100.00;61272.81;5240765;28;20025;-78
2022/04/09 07:55:40;;;;;;;15.43;3.00;;;;;;;-150.27;100.00;61272.81;5248076;28;20037;-69
2022/04/09 07:58:14;;;;;;;13.47;3.30;;;;;;;-150.27;100.00;61272.81;5232150;28;20034;-80
2022/04/09 08:00:45;;;;;;;10.30;3.45;;;;;;;-150.27;100.00;61272.81;5247164;28;20029;-82
2022/04/09 08:03:17;;;;;;;8.53;2.63;;;;;;;-150.27;100.00;61272.81;5250959;28;20521;-82
2022/04/09 08:05:48;;;;;;;17.03;3.50;;;;;;;-150.27;100.00;61272.81;5253507;28;20099;-81
2022/04/09 08:08:19;;;;;;;16.43;3.80;;;;;;;-150.27;100.00;61272.81;5248368;28;20690;-78
2022/04/09 08:10:51;;;;;;;13.27;3.43;;;;;;;-150.27;100.00;61272.81;5253234;28;20021;-76
2022/04/09 08:13:23;;;;;;;10.10;2.70;;;;;;;-150.27;100.00;61272.81;5253325;28;20060;-76
2022/04/09 08:15:54;;;;;;;11.63;3.20;;;;;;;-150.27;100.00;61272.81;5253776;28;20467;-75
2022/04/09 08:18:25;;;;;;;13.80;3.23;;;;;;;-150.27;100.00;61272.81;5253859;28;20087;-75
2022/04/09 08:20:57;;;;;;;9.93;2.73;;;;;;;-150.27;100.00;61272.81;5228068;28;20037;-76
2022/04/09 08:23:28;;;;;;;12.67;2.80;;;;;;;-150.27;100.00;61272.81;5213178;28;20190;-71
2022/04/09 08:26:01;;;;;;;14.73;3.10;;;;;;;-150.27;100.00;61272.81;5207540;28;20033;-79
2022/04/09 08:28:36;;;;;;;8.03;2.47;;;;;;;-150.27;100.00;61272.81;5215704;28;20049;-78
2022/04/09 08:31:08;;;;;;;11.30;2.50;;;;;;;-150.27;100.00;61272.81;5204331;28;20480;-83
2022/04/09 08:33:42;;;;;;;12.30;3.30;;;;;;;-150.27;100.00;61272.81;5216426;28;20453;-77
2022/04/09 08:36:13;;;;;;;8.80;2.72;;;;;;;-150.27;100.00;61272.81;5223345;28;20685;-76
2022/04/09 08:38:45;;;;;;;13.13;2.40;;;;;;;-150.27;100.00;61272.81;5196796;28;20030;-76
2022/04/09 08:41:18;;;;;;;7.93;2.67;;;;;;;-150.27;100.00;61272.81;5196790;28;20060;-83
2022/04/09 08:43:50;;;;;;;8.88;2.33;;;;;;;-150.27;100.00;61272.81;5213705;28;20038;-82
2022/04/09 08:46:25;;;;;;;11.13;2.80;;;;;;;-150.27;100.00;61272.81;5219030;28;20547;-80
2022/04/09 08:48:59;;;;;;;7.43;2.13;;;;;;;-150.27;100.00;61272.81;5214568;28;20767;-79
2022/04/09 08:51:31;;;;;;;11.60;4.27;;;;;;;-150.27;100.00;61272.81;5214366;28;21511;-77
2022/04/09 08:54:04;;;;;;;12.17;2.53;;;;;;;-150.27;100.00;61272.81;5214557;28;20051;-73
2022/04/09 08:56:37;;;;;;;11.17;2.50;;;;;;;-150.27;100.00;61272.81;5199652;28;20022;-74
2022/04/09 08:59:08;;;;;;;10.00;3.27;;;;;;;-150.27;100.00;61272.81;5215880;28;20140;-77
2022/04/09 09:01:39;;;;;;;10.30;2.03;;;;;;;-150.27;100.00;61272.81;5212839;28;20143;-77
2022/04/09 09:04:11;;;;;;;7.80;1.70;;;;;;;-150.27;100.00;61272.81;5216414;28;20516;-75
2022/04/09 09:06:45;;;;;;;6.57;2.17;;;;;;;-150.27;100.00;61272.81;5209308;28;20044;-76
2022/04/09 09:09:31;;;;;;;7.70;2.03;;;;;;;-150.27;100.00;61272.81;5219960;28;20029;-76
2022/04/09 09:12:06;;;;;;;7.03;2.13;;;;;;;-150.27;100.00;61272.81;5218616;28;20682;-77
2022/04/09 09:14:44;;;;;;;5.03;1.63;;;;;;;-150.27;100.00;61272.81;5190647;28;20081;-77
2022/04/09 09:17:26;;;;;;;8.87;2.67;;;;;;;-150.27;100.00;61272.81;5210572;28;20075;-75
2022/04/09 09:19:58;;;;;;;6.77;1.77;;;;;;;-150.27;100.00;61272.81;5215753;28;20030;-75
2022/04/09 09:22:39;;;;;;;9.10;2.20;;;;;;;-150.27;100.00;61272.81;5205951;28;20036;-75
2022/04/09 09:25:11;;;;;;;8.83;2.27;;;;;;;-150.27;100.00;61272.81;5193189;28;20064;-76
2022/04/09 09:27:43;;;;;;;6.40;1.70;;;;;;;-150.27;100.00;61272.81;5183275;28;20433;-79
2022/04/09 09:30:14;;;;;;;5.60;1.20;;;;;;;-150.27;100.00;61272.81;5206416;28;20030;-78
2022/04/09 09:33:05;;;;;;;3.03;1.07;;;;;;;-150.27;100.00;61272.81;5200764;28;20021;-76
2022/04/09 09:35:55;;;;;;;4.03;1.43;;;;;;;-150.27;100.00;61272.81;5208954;28;20037;-78
2022/04/09 09:38:31;;;;;;;4.83;1.70;;;;;;;-150.27;100.00;61272.81;5199528;28;20073;-72
2022/04/09 09:41:03;;;;;;;2.83;1.13;;;;;;;-150.27;100.00;61272.81;5209691;28;20045;-74
2022/04/09 09:43:36;;;;;;;4.80;1.93;;;;;;;-150.27;100.00;61272.81;5200160;28;20519;-73
2022/04/09 09:46:07;;;;;;;6.40;1.60;;;;;;;-150.27;100.00;61272.81;5199952;28;20038;-73
2022/04/09 09:48:39;;;;;;;5.27;1.63;;;;;;;-150.27;100.00;61272.81;5201039;28;20037;-74
2022/04/09 09:51:10;;;;;;;4.73;1.47;;;;;;;-150.27;100.00;61272.81;5201926;28;20038;-74
2022/04/09 09:53:41;;;;;;;7.83;1.40;;;;;;;-150.27;100.00;61272.81;5206594;28;20041;-78
2022/04/09 09:56:13;;;;;;;10.30;1.67;;;;;;;-150.27;100.00;61272.81;5206261;28;20042;-78
2022/04/09 09:58:44;;;;;;;10.67;2.00;;;;;;;-150.27;100.00;61272.81;5203088;28;20112;-79
2022/04/09 10:01:16;;;;;;;3.37;1.03;;;;;;;-150.27;100.00;61272.81;5205683;28;20444;-79
2022/04/09 10:03:48;;;;;;;7.23;1.70;;;;;;;-150.27;100.00;61272.81;5199995;28;20052;-79
2022/04/09 10:06:21;;;;;;;4.37;1.30;;;;;;;-150.27;100.00;61272.81;5207237;28;20476;-79
2022/04/09 10:08:52;;;;;;;4.40;1.30;;;;;;;-150.27;100.00;61272.81;5204841;28;20032;-79
2022/04/09 10:11:24;;;;;;;4.67;1.50;;;;;;;-150.27;100.00;61272.81;5209220;28;20732;-80
2022/04/09 10:13:56;;;;;;;4.47;1.33;;;;;;;-150.27;100.00;61272.81;5210564;28;20053;-79
2022/04/09 10:16:30;;;;;;;3.93;1.47;;;;;;;-150.27;100.00;61272.81;5209631;28;20033;-81
2022/04/09 10:19:04;;;;;;;;;;;;;;;-150.27;100.00;61272.81;5211543;28;20034;-80
2022/04/09 10:21:39;;;;;;;6.97;1.50;;;;;;;-150.27;100.00;61272.81;5190333;28;19925;-75
2022/04/09 10:24:16;;;;;;;5.57;1.37;;;;;;;-150.27;100.00;61272.81;5218704;28;20025;-77
2022/04/09 10:26:48;;;;;;;5.67;1.27;;;;;;;-150.27;100.00;61272.81;5223783;28;20033;-75
2022/04/09 10:29:19;;;;;;;4.70;1.20;;;;;;;-150.27;100.00;61272.81;5198545;28;20095;-80
2022/04/09 10:31:52;;;;;;;4.23;1.37;;;;;;;-150.27;100.00;61272.81;5240998;28;20488;-79
2022/04/09 10:34:23;;;;;;;3.27;1.10;;;;;;;-150.27;100.00;61272.81;5249590;28;20485;-79
2022/04/09 10:36:54;;;;;;;7.20;1.30;;;;;;;-150.27;100.00;61272.81;5237119;28;20032;-79
2022/04/09 10:39:36;;;;;;;4.90;1.10;;;;;;;-150.27;100.00;61272.81;5241132;28;20032;-80
2022/04/09 10:42:08;;;;;;;5.20;1.33;;;;;;;-150.27;100.00;61272.81;5241779;28;20033;-80
2022/04/09 10:44:42;;;;;;;7.67;1.60;;;;;;;-150.27;100.00;61272.81;5245378;28;20080;-80
2022/04/09 10:47:15;;;;;;;4.22;1.40;;;;;;;-150.27;100.00;61272.81;5249931;28;20017;-78
2022/04/09 10:50:02;;;;;;;6.60;1.50;;;;;;;-150.27;100.00;61272.81;5202320;28;20423;-82
2022/04/09 10:52:33;;;;;;;5.67;1.30;;;;;;;-150.27;100.00;61272.81;5228564;28;20053;-79
2022/04/09 10:55:10;;;;;;;5.37;1.07;;;;;;;-150.27;100.00;61272.81;5224959;28;20028;-80
2022/04/09 10:57:44;;;;;;;6.33;1.23;;;;;;;-150.27;100.00;61272.81;5239173;28;20025;-86
2022/04/09 11:00:21;;;;;;;3.20;1.10;;;;;;;-150.27;100.00;61272.81;5232090;28;20017;-90
2022/04/09 11:03:10;;;;;;;5.63;1.40;;;;;;;-150.27;100.00;61272.81;5226854;28;20041;-90
2022/04/09 11:05:43;;;;;;;3.47;1.63;;;;;;;-150.27;100.00;61272.81;5231174;28;20034;-82
2022/04/09 11:08:19;;;;;;;3.57;1.00;;;;;;;-150.27;100.00;61272.81;5247873;28;20036;-81
2022/04/09 11:10:50;;;;;;;5.73;1.57;;;;;;;-150.27;100.00;61272.81;5228204;28;20025;-81
2022/04/09 11:13:29;;;;;;;4.67;0.80;;;;;;;-150.27;100.00;61272.81;5243423;28;20079;-81
2022/04/09 11:16:01;;;;;;;4.47;0.90;;;;;;;-150.27;100.00;61272.81;5234528;28;20033;-83
2022/04/09 11:18:41;;;;;;;6.13;1.97;;;;;;;-150.27;100.00;61272.81;5231643;28;20419;-82
2022/04/09 11:21:13;;;;;;;2.63;0.60;;;;;;;-150.27;100.00;61272.81;5227733;28;20034;-81
2022/04/09 11:23:44;;;;;;;4.77;1.00;;;;;;;-150.27;100.00;61272.81;5228036;28;20034;-81
2022/04/09 11:26:18;;;;;;;6.47;1.33;;;;;;;-150.27;100.00;61272.81;5228164;28;20086;-80
2022/04/09 11:28:49;;;;;;;3.70;0.80;;;;;;;-150.27;100.00;61272.81;5216983;28;20033;-76